Flight Track Log - Related Links

Times and Time Zones

All times are in EDT time to prevent confusion due to time zone crossing. See the FDX1234 flight status page for this flight to view local times or setup timezone preferences in your user account.

Time Position Orientation Groundspeed Altitude Reporting Facility
EDT Latitude Longitude Course Direction KTS MPH feet Rate Location/Type
Tue 10:59:49 PM 38.9320 -77.4600 181° South 163 188 1,000  Level FlightAware ADS-B
Tue 11:00:13 PM 38.9210 -77.4670 206° Southwest 174 200 1,400 1,400 Climbing FlightAware ADS-B
Tue 11:00:19 PM 38.9140 -77.4800 235° Southwest 194 223 1,700 1,742 Climbing FlightAware ADS-B
Tue 11:00:44 PM 38.9020 -77.5080 241° Southwest 222 255 2,300 1,600 Climbing FlightAware ADS-B
Tue 11:01:04 PM 38.8910 -77.5320 240° Southwest 247 284 2,900 2,100 Climbing FlightAware ADS-B
Tue 11:01:24 PM 38.8800 -77.5580 241° Southwest 256 295 3,700 2,640 Climbing FlightAware ADS-B
Tue 11:01:29 PM 38.8770 -77.5650 241° Southwest 258 297 4,000 3,200 Climbing FlightAware ADS-B
Tue 11:01:39 PM 38.8740 -77.5800 256° West 261 300 4,500 2,700 Climbing FlightAware ADS-B
Tue 11:01:49 PM 38.8700 -77.5950 251° West 265 305 4,900 2,743 Climbing FlightAware ADS-B
Tue 11:02:14 PM 38.8600 -77.6330 251° West 274 315 6,100 2,235 Climbing FlightAware ADS-B
Tue 11:02:40 PM 38.8490 -77.6710 250° West 266 306 6,800 2,000 Climbing FlightAware ADS-B
Tue 11:03:02 PM 38.8390 -77.7040 249° West 266 306 7,700 2,182 Climbing FlightAware ADS-B
Tue 11:03:24 PM 38.8320 -77.7380 255° West 279 321 8,400 2,286 Climbing FlightAware ADS-B
Tue 11:03:44 PM 38.8300 -77.7730 266° West 281 323 9,300 2,250 Climbing FlightAware ADS-B
Tue 11:04:04 PM 38.8320 -77.8050 275° West 293 337 9,900 955 Climbing FlightAware ADS-B
Tue 11:04:28 PM 38.8340 -77.8500 273° West 331 381 10,000 750 Climbing FlightAware ADS-B
Tue 11:05:00 PM 38.8380 -77.9160 274° West 362 417 10,600 1,739 Climbing FlightAware ADS-B
Tue 11:05:37 PM 38.8420 -77.9890 274° West 366 421 12,000 2,384 Climbing FlightAware ADS-B
Tue 11:06:13 PM 38.8460 -78.0740 273° West 373 429 13,500 2,294 Climbing FlightAware ADS-B
Tue 11:06:45 PM 38.8510 -78.1480 275° West 381 438 14,600 2,029 Climbing FlightAware ADS-B
Tue 11:07:21 PM 38.8540 -78.2280 273° West 388 447 15,800 1,973 Climbing FlightAware ADS-B
Tue 11:07:58 PM 38.8530 -78.3130 269° West 394 453 17,000 1,913 Climbing FlightAware ADS-B
Tue 11:08:30 PM 38.8530 -78.3890 270° West 402 463 18,000 1,636 Climbing FlightAware ADS-B
Tue 11:09:04 PM 38.8520 -78.4710 269° West 411 473 18,800 1,437 Climbing FlightAware ADS-B
Tue 11:09:41 PM 38.8510 -78.5600 269° West 420 483 19,700 1,562 Climbing FlightAware ADS-B
Tue 11:10:17 PM 38.8490 -78.6480 268° West 427 491 20,700 1,652 Climbing FlightAware ADS-B
Tue 11:10:50 PM 38.8480 -78.7370 269° West 431 496 21,600 1,457 Climbing FlightAware ADS-B
Tue 11:11:27 PM 38.8470 -78.8190 269° West 440 506 22,400 1,286 Climbing FlightAware ADS-B
Tue 11:12:00 PM 38.8450 -78.9190 269° West 448 516 23,100 1,500 Climbing FlightAware ADS-B
Tue 11:12:35 PM 38.8440 -79.0120 269° West 450 518 24,100 1,543 Climbing FlightAware ADS-B
Tue 11:13:10 PM 38.8420 -79.1060 268° West 452 520 24,900 1,629 Climbing FlightAware ADS-B
Tue 11:13:45 PM 38.8390 -79.1990 268° West 448 516 26,000 1,371 Climbing FlightAware ADS-B
Tue 11:14:20 PM 38.8240 -79.2880 258° West 457 526 26,500 1,029 Climbing FlightAware ADS-B
Tue 11:14:55 PM 38.8070 -79.3840 257° West 463 533 27,200 1,114 Climbing FlightAware ADS-B
Tue 11:15:30 PM 38.7900 -79.4780 257° West 466 536 27,800 1,200 Climbing FlightAware ADS-B
Tue 11:16:05 PM 38.7740 -79.5640 257° West 464 534 28,600 1,371 Climbing FlightAware ADS-B
Tue 11:16:40 PM 38.7560 -79.6630 257° West 465 535 29,400 1,114 Climbing FlightAware ADS-B
Tue 11:17:15 PM 38.7390 -79.7570 257° West 468 539 29,900 857 Climbing FlightAware ADS-B
Tue 11:17:50 PM 38.7210 -79.8550 257° West 472 543 30,400 1,200 Climbing FlightAware ADS-B
Tue 11:18:25 PM 38.7040 -79.9490 257° West 466 536 31,300 1,543 Climbing FlightAware ADS-B
Tue 11:19:00 PM 38.6870 -80.0400 257° West 459 528 32,200 1,286 Climbing FlightAware ADS-B
Tue 11:19:35 PM 38.6700 -80.1320 257° West 455 524 32,800 1,309 Climbing FlightAware ADS-B
Tue 11:19:55 PM 38.6590 -80.1860 255° West 448 516 33,400 607 Climbing FlightAware ADS-B
Tue 11:21:04 PM 38.6300 -80.3390 256° West 445 512 33,700 1,101 Climbing FlightAware ADS-B
Tue 11:21:44 PM 38.6740 -80.1080 76° East 438 504 35,400 1,816 Climbing FlightAware ADS-B
Tue 11:22:20 PM 38.5920 -80.5430 257° West 425 489 36,000 493 Climbing FlightAware ADS-B
Tue 11:22:57 PM 38.5750 -80.6310 256° West 426 490 36,000  Level FlightAware ADS-B
Tue 11:23:31 PM 38.5590 -80.7160 256° West 427 491 36,000  Level FlightAware ADS-B
Tue 11:24:04 PM 38.5430 -80.7970 256° West 424 488 36,000  Level FlightAware ADS-B
Tue 11:24:40 PM 38.5260 -80.8850 256° West 425 489 36,000  Level FlightAware ADS-B
Tue 11:25:16 PM 38.5090 -80.9720 256° West 424 488 36,000  Level FlightAware ADS-B
Tue 11:25:48 PM 38.4940 -81.0500 256° West 427 491 36,000  Level FlightAware ADS-B
Tue 11:26:24 PM 38.4760 -81.1380 255° West 427 491 36,000  Level FlightAware ADS-B
Tue 11:27:01 PM 38.4610 -81.2150 256° West 427 491 36,000  Level FlightAware ADS-B
Tue 11:27:37 PM 38.4470 -81.2900 257° West 427 491 36,000  Level FlightAware ADS-B
Tue 11:28:14 PM 38.4320 -81.3670 256° West 427 491 36,000  Level FlightAware ADS-B
Tue 11:28:50 PM 38.4170 -81.4420 256° West 427 491 36,000  Level FlightAware ADS-B
Tue 11:29:29 PM 38.3870 -81.5880 255° West 430 495 36,000  Level FlightAware ADS-B
Tue 11:30:05 PM 38.3680 -81.6780 255° West 431 496 36,000  Level FlightAware ADS-B
Tue 11:30:34 PM 38.3540 -81.7500 256° West 431 496 36,000  Level FlightAware ADS-B
Tue 11:31:08 PM 38.3330 -81.8290 251° West 433 498 36,000  Level FlightAware ADS-B
Tue 11:31:48 PM 38.3060 -81.9280 251° West 434 499 36,000  Level FlightAware ADS-B
Tue 11:32:24 PM 38.2813 -82.0146 250° West 435 501 36,000  Level FlightAware ADS-B
Tue 11:32:55 PM 38.2598 -82.0916 250° West 434 499 36,000  Level FlightAware ADS-B
Tue 11:33:26 PM 38.2393 -82.1633 250° West 433 498 36,000  Level FlightAware ADS-B
Tue 11:33:56 PM 38.2190 -82.2349 250° West 432 497 36,000  Level FlightAware ADS-B
Tue 11:34:42 PM 38.1880 -82.3450 250° West 431 496 36,000  Level FlightAware ADS-B
Tue 11:34:56 PM 38.1784 -82.3781 250° West 432 497 36,000 -82 Level FlightAware ADS-B
Tue 11:35:55 PM 38.1390 -82.5180 250° West 429 494 35,900  Descending FlightAware ADS-B
Tue 11:36:25 PM 38.1180 -82.5890 249° West 432 497 36,000 90 Climbing FlightAware ADS-B
Tue 11:37:02 PM 38.0930 -82.6780 250° West 435 501 36,000  Level FlightAware ADS-B
Tue 11:37:39 PM 38.0670 -82.7670 250° West 434 499 36,000  Level FlightAware ADS-B
Tue 11:38:14 PM 38.0430 -82.8500 250° West 433 498 36,000  Level FlightAware ADS-B
Tue 11:38:52 PM 38.0160 -82.9410 249° West 434 499 36,000  Level FlightAware ADS-B
Tue 11:39:26 PM 37.9930 -83.0220 250° West 432 497 36,000  Level FlightAware ADS-B
Tue 11:39:54 PM 37.9730 -83.0880 249° West 433 498 36,000  Level FlightAware ADS-B
Tue 11:40:41 PM 37.9410 -83.1980 250° West 433 498 36,000  Level FlightAware ADS-B
Tue 11:41:18 PM 37.9150 -83.2880 250° West 433 498 36,000  Level FlightAware ADS-B
Tue 11:41:38 PM 37.9000 -83.3377 249° West 434 499 36,000  Level FlightAware ADS-B
Tue 11:42:09 PM 37.8782 -83.4114 249° West 434 499 36,000  Level FlightAware ADS-B
Tue 11:42:40 PM 37.8564 -83.4830 249° West 436 502 36,000  Level FlightAware ADS-B
Tue 11:43:14 PM 37.8323 -83.5640 249° West 436 502 36,000  Level FlightAware ADS-B
Tue 11:44:15 PM 37.7890 -83.7100 249° West 437 503 36,000  Level FlightAware ADS-B
Tue 11:44:49 PM 37.7650 -83.7910 249° West 437 503 36,000  Level FlightAware ADS-B
Tue 11:45:23 PM 37.7410 -83.8720 249° West 438 504 36,000  Level FlightAware ADS-B
Tue 11:46:01 PM 37.7130 -83.9630 249° West 438 504 36,000  Level FlightAware ADS-B
Tue 11:46:37 PM 37.6870 -84.0490 249° West 438 504 36,000  Level FlightAware ADS-B
Tue 11:47:09 PM 37.6640 -84.1260 249° West 439 505 36,000  Level FlightAware ADS-B
Tue 11:47:45 PM 37.6380 -84.2120 249° West 440 506 36,000  Level FlightAware ADS-B
Tue 11:48:21 PM 37.6110 -84.2980 248° West 440 506 36,000  Level FlightAware ADS-B
Tue 11:48:57 PM 37.5840 -84.3870 249° West 441 507 36,000  Level FlightAware ADS-B
Tue 11:49:29 PM 37.5610 -84.4590 248° West 442 509 36,000  Level FlightAware ADS-B
Tue 11:50:07 PM 37.5330 -84.5520 249° West 442 509 36,000  Level FlightAware ADS-B
Tue 11:50:39 PM 37.5090 -84.6290 249° West 441 507 36,000  Level FlightAware ADS-B
Tue 11:51:08 PM 37.4876 -84.6985 249° West 440 506 36,000  Level FlightAware ADS-B
Tue 11:51:38 PM 37.4654 -84.7698 249° West 439 505 36,000  Level FlightAware ADS-B
Tue 11:52:10 PM 37.4411 -84.8479 249° West 437 503 36,000  Level FlightAware ADS-B
Tue 11:52:41 PM 37.4187 -84.9186 248° West 433 498 36,000  Level FlightAware ADS-B
Tue 11:53:11 PM 37.3968 -84.9887 249° West 432 497 36,000 -100 Level FlightAware ADS-B
Tue 11:53:41 PM 37.3748 -85.0587 248° West 431 496 35,900 -100 Descending FlightAware ADS-B
Tue 11:54:11 PM 37.3528 -85.1283 248° West 430 495 35,900  Level FlightAware ADS-B
Tue 11:54:41 PM 37.3304 -85.2003 249° West 430 495 35,900 97 Level FlightAware ADS-B
Tue 11:55:13 PM 37.3075 -85.2721 248° West 432 497 36,000 97 Climbing FlightAware ADS-B
Tue 11:55:43 PM 37.2850 -85.3419 248° West 431 496 36,000  Level FlightAware ADS-B
Tue 11:56:14 PM 37.2622 -85.4140 248° West 432 497 36,000  Level FlightAware ADS-B
Tue 11:56:44 PM 37.2398 -85.4835 248° West 431 496 36,000  Level FlightAware ADS-B
Tue 11:57:14 PM 37.2175 -85.5556 249° West 431 496 36,000  Level FlightAware ADS-B
Tue 11:57:44 PM 37.1954 -85.6255 248° West 432 497 36,000  Level FlightAware ADS-B
Tue 11:58:16 PM 37.1719 -85.6974 248° West 433 498 36,000  Level FlightAware ADS-B
Tue 11:58:58 PM 37.1420 -85.7910 248° West 433 498 36,000  Level FlightAware ADS-B
Tue 11:59:28 PM 37.1200 -85.8600 248° West 434 499 36,000  Level FlightAware ADS-B
Wed 12:00:03 AM 37.0940 -85.9390 248° West 434 499 36,000  Level FlightAware ADS-B
Wed 12:00:49 AM 37.0560 -86.0540 248° West 438 504 36,000  Level FlightAware ADS-B
Wed 12:01:23 AM 37.0320 -86.1260 247° West 440 506 36,000  Level FlightAware ADS-B
Wed 12:02:01 AM 37.0008 -86.2255 249° West 442 509 36,000  Level FlightAware ADS-B
Wed 12:02:32 AM 36.9769 -86.2968 247° West 444 511 36,000  Level FlightAware ADS-B
Wed 12:03:03 AM 36.9530 -86.3703 248° West 446 513 36,000  Level FlightAware ADS-B
Wed 12:03:31 AM 36.9305 -86.4371 247° West 447 514 36,000  Level FlightAware ADS-B
Wed 12:04:02 AM 36.9006 -86.5081 242° Southwest 450 518 36,000  Level FlightAware ADS-B
Wed 12:04:36 AM 36.8657 -86.5876 241° Southwest 449 517 36,000  Level FlightAware ADS-B
Wed 12:05:07 AM 36.8348 -86.6581 241° Southwest 449 517 36,000  Level FlightAware ADS-B
Wed 12:05:39 AM 36.8028 -86.7306 241° Southwest 448 516 36,000  Level FlightAware ADS-B
Wed 12:06:10 AM 36.7721 -86.7985 241° Southwest 448 516 36,000 -290 Level FlightAware ADS-B
Wed 12:06:41 AM 36.7412 -86.8680 241° Southwest 440 506 35,700 -656 Descending FlightAware ADS-B
Wed 12:07:14 AM 36.7100 -86.9390 241° Southwest 442 509 35,300 -706 Descending FlightAware ADS-B
Wed 12:07:49 AM 36.6740 -87.0190 241° Southwest 442 509 34,900 -676 Descending FlightAware ADS-B
Wed 12:08:25 AM 36.6380 -87.1000 241° Southwest 444 511 34,500 -686 Descending FlightAware ADS-B
Wed 12:08:59 AM 36.6050 -87.1750 241° Southwest 441 507 34,100 -429 Descending FlightAware ADS-B
Wed 12:09:35 AM 36.5680 -87.2550 240° Southwest 445 512 34,000 -88 Descending FlightAware ADS-B
Wed 12:10:07 AM 36.5360 -87.3270 241° Southwest 446 513 34,000  Level FlightAware ADS-B
Wed 12:10:43 AM 36.5000 -87.4080 241° Southwest 445 512 34,000  Level FlightAware ADS-B
Wed 12:11:18 AM 36.4650 -87.4860 241° Southwest 447 514 34,000  Level FlightAware ADS-B
Wed 12:11:55 AM 36.4280 -87.5670 240° Southwest 448 516 34,000  Level FlightAware ADS-B
Wed 12:12:30 AM 36.3910 -87.6470 240° Southwest 450 518 34,000  Level FlightAware ADS-B
Wed 12:13:02 AM 36.3580 -87.7190 240° Southwest 450 518 34,000 -88 Level FlightAware ADS-B
Wed 12:13:38 AM 36.3210 -87.8010 241° Southwest 449 517 33,900 -500 Descending FlightAware ADS-B
Wed 12:14:14 AM 36.2860 -87.8800 241° Southwest 439 505 33,400 -833 Descending FlightAware ADS-B
Wed 12:14:50 AM 36.2490 -87.9590 240° Southwest 438 504 32,900 -628 Descending FlightAware ADS-B
Wed 12:15:40 AM 36.2030 -88.0590 240° Southwest 437 503 32,500 -279 Descending FlightAware ADS-B
Wed 12:16:16 AM 36.1720 -88.1260 240° Southwest 437 503 32,500  Level FlightAware ADS-B
Wed 12:16:52 AM 36.1410 -88.1920 240° Southwest 437 503 32,500 -2,750 Level FlightAware ADS-B
Wed 12:17:28 AM 36.0950 -88.2950 241° Southwest 417 480 29,200 -2,605 Descending FlightAware ADS-B
Wed 12:18:08 AM 36.0620 -88.3650 240° Southwest 417 480 29,200  Level FlightAware ADS-B
Wed 12:18:44 AM 36.0320 -88.4280 240° Southwest 417 480 29,200  Level FlightAware ADS-B
Wed 12:19:20 AM 36.0030 -88.4910 240° Southwest 417 480 29,200  Level FlightAware ADS-B
Wed 12:19:56 AM 35.9730 -88.5540 240° Southwest 417 480 29,200  Level FlightAware ADS-B
Wed 12:20:34 AM 35.9420 -88.6210 240° Southwest 417 480 29,200  Level FlightAware ADS-B
Wed 12:21:11 AM 35.9120 -88.6860 240° Southwest 417 480 29,200 -3,325 Level FlightAware ADS-B
Wed 12:21:57 AM 35.8406 -88.8333 240° Southwest 416 479 24,600 -2,943 Descending Memphis Center
Wed 12:22:57 AM 35.7817 -88.9547 239° Southwest 416 479 24,000 -1,150 Descending Memphis Center
Wed 12:23:57 AM 35.7264 -89.0708 240° Southwest 410 472 22,300 -1,900 Descending Memphis Center
Wed 12:24:57 AM 35.6525 -89.1717 228° Southwest 405 466 20,200 -2,150 Descending Memphis Center
Wed 12:25:57 AM 35.5783 -89.2697 227° Southwest 398 458 18,000 -2,150 Descending Memphis Center
Wed 12:26:57 AM 35.5039 -89.3625 225° Southwest 387 445 15,900 -1,600 Descending Memphis Center
Wed 12:27:57 AM 35.4358 -89.4550 228° Southwest 377 434 14,800 -950 Descending Memphis Center
Wed 12:28:57 AM 35.3697 -89.5372 225° Southwest 356 410 14,000 -700 Descending Memphis Center
Wed 12:29:57 AM 35.3097 -89.6142 226° Southwest 322 371 13,400 -850 Descending Memphis Center
Wed 12:30:57 AM 35.2517 -89.6883 226° Southwest 307 353 12,300 -950 Descending Memphis Center
Wed 12:31:57 AM 35.1997 -89.7522 225° Southwest 301 346 11,500 -900 Descending Memphis Center
Wed 12:32:57 AM 35.1522 -89.8136 227° Southwest 276 318 10,500 -1,150 Descending Memphis Center
Wed 12:33:57 AM 35.1022 -89.8697 223° Southwest 257 296 9,200 -1,350 Descending Memphis Center
Wed 12:34:57 AM 35.0314 -89.8678 179° South 233 268 7,800 -1,650 Descending Memphis Center
Wed 12:35:57 AM 34.9647 -89.8681 180° South 238 274 5,900 -1,800 Descending Memphis Center
Wed 12:36:57 AM 34.9019 -89.8683 180° South 231 266 4,200 -1,750 Descending Memphis Center
Wed 12:37:57 AM 34.8458 -89.8739 185° South 226 260 2,400 -1,100 Descending Memphis Center
Wed 12:38:57 AM 34.8647 -89.9192 297° West 127 146 2,000 -238 Descending Memphis Center
Wed 12:40:03 AM 34.9167 -89.9500 334° Northwest 175 201 1,900 -229 Descending KMEM
Wed 12:41:08 AM 34.9667 -89.9667 345° North 156 180 1,500 -537 Descending KMEM
Wed 12:42:17 AM 35.0167 -89.9667 360° North 152 175 700 -696 Descending KMEM
Wed 12:44:00 AM 35.0333 -89.9667 345° North  Level FlightAware Approximate

Login

Don't have an account? Register now (free) for customized features, flight alerts, and more!